sensor_id;sensor_type;location;lat;lon;timestamp;pressure;altitude;pressure_sealevel;temperature;humidity
11440;BME280;5776;51.814;4.510;2022-07-23T00:01:36;102004.88;;;18.26;70.45
11440;BME280;5776;51.814;4.510;2022-07-23T00:04:02;102001.63;;;18.24;70.46
11440;BME280;5776;51.814;4.510;2022-07-23T00:06:28;102005.97;;;18.25;69.95
11440;BME280;5776;51.814;4.510;2022-07-23T00:08:54;101998.88;;;18.24;70.06
11440;BME280;5776;51.814;4.510;2022-07-23T00:11:22;102007.13;;;18.24;70.25
11440;BME280;5776;51.814;4.510;2022-07-23T00:13:48;101999.00;;;18.19;71.00
11440;BME280;5776;51.814;4.510;2022-07-23T00:16:14;101997.97;;;18.15;70.32
11440;BME280;5776;51.814;4.510;2022-07-23T00:18:41;101998.59;;;18.12;71.12
11440;BME280;5776;51.814;4.510;2022-07-23T00:21:07;101992.28;;;18.11;70.59
11440;BME280;5776;51.814;4.510;2022-07-23T00:23:33;101986.59;;;18.08;70.91
11440;BME280;5776;51.814;4.510;2022-07-23T00:25:59;101988.25;;;18.09;70.71
11440;BME280;5776;51.814;4.510;2022-07-23T00:28:25;101983.84;;;18.08;71.77
11440;BME280;5776;51.814;4.510;2022-07-23T00:30:50;101975.13;;;18.06;71.30
11440;BME280;5776;51.814;4.510;2022-07-23T00:33:16;101973.97;;;18.07;71.40
11440;BME280;5776;51.814;4.510;2022-07-23T00:35:42;101972.38;;;18.06;71.05
11440;BME280;5776;51.814;4.510;2022-07-23T00:38:09;101970.22;;;18.03;71.70
11440;BME280;5776;51.814;4.510;2022-07-23T00:40:37;101967.81;;;18.01;71.74
11440;BME280;5776;51.814;4.510;2022-07-23T00:43:03;101966.50;;;17.99;71.83
11440;BME280;5776;51.814;4.510;2022-07-23T00:45:30;101959.34;;;17.98;71.92
11440;BME280;5776;51.814;4.510;2022-07-23T00:47:58;101973.41;;;17.96;72.00
11440;BME280;5776;51.814;4.510;2022-07-23T00:50:25;101965.97;;;17.97;71.56
11440;BME280;5776;51.814;4.510;2022-07-23T00:52:52;101965.97;;;17.97;71.99
11440;BME280;5776;51.814;4.510;2022-07-23T00:55:18;101954.31;;;17.91;72.07
11440;BME280;5776;51.814;4.510;2022-07-23T00:57:44;101957.06;;;17.91;71.54
11440;BME280;5776;51.814;4.510;2022-07-23T01:00:13;101955.91;;;17.92;71.25
11440;BME280;5776;51.814;4.510;2022-07-23T01:02:40;101953.47;;;17.90;71.22
11440;BME280;5776;51.814;4.510;2022-07-23T01:05:07;101941.50;;;17.86;72.11
11440;BME280;5776;51.814;4.510;2022-07-23T01:07:33;101944.75;;;17.88;72.20
11440;BME280;5776;51.814;4.510;2022-07-23T01:10:00;101943.09;;;17.87;72.15
11440;BME280;5776;51.814;4.510;2022-07-23T01:12:26;101946.47;;;17.84;71.71
11440;BME280;5776;51.814;4.510;2022-07-23T01:14:58;101948.09;;;17.85;71.46
11440;BME280;5776;51.814;4.510;2022-07-23T01:17:25;101951.97;;;17.84;71.34
11440;BME280;5776;51.814;4.510;2022-07-23T01:19:51;101949.22;;;17.84;71.90
11440;BME280;5776;51.814;4.510;2022-07-23T01:22:19;101953.41;;;17.82;71.42
11440;BME280;5776;51.814;4.510;2022-07-23T01:24:45;101960.31;;;17.79;71.20
11440;BME280;5776;51.814;4.510;2022-07-23T01:27:11;101947.69;;;17.78;71.21
11440;BME280;5776;51.814;4.510;2022-07-23T01:29:38;101960.59;;;17.78;71.77
11440;BME280;5776;51.814;4.510;2022-07-23T01:32:05;101958.47;;;17.75;71.60
11440;BME280;5776;51.814;4.510;2022-07-23T01:34:31;101954.41;;;17.72;71.27
11440;BME280;5776;51.814;4.510;2022-07-23T01:36:57;101946.19;;;17.72;71.93
11440;BME280;5776;51.814;4.510;2022-07-23T01:39:23;101946.28;;;17.67;71.45
11440;BME280;5776;51.814;4.510;2022-07-23T01:41:49;101956.25;;;17.63;71.65
11440;BME280;5776;51.814;4.510;2022-07-23T01:44:15;101954.13;;;17.60;71.63
11440;BME280;5776;51.814;4.510;2022-07-23T01:46:41;101947.31;;;17.57;72.26
11440;BME280;5776;51.814;4.510;2022-07-23T01:49:07;101949.78;;;17.59;71.70
11440;BME280;5776;51.814;4.510;2022-07-23T01:51:33;101951.59;;;17.63;71.48
11440;BME280;5776;51.814;4.510;2022-07-23T01:53:59;101951.91;;;17.62;72.23
11440;BME280;5776;51.814;4.510;2022-07-23T01:56:25;101958.72;;;17.64;72.08
11440;BME280;5776;51.814;4.510;2022-07-23T01:58:51;101958.19;;;17.62;72.14
11440;BME280;5776;51.814;4.510;2022-07-23T02:01:17;101958.19;;;17.62;71.85
11440;BME280;5776;51.814;4.510;2022-07-23T02:03:44;101960.13;;;17.62;72.31
11440;BME280;5776;51.814;4.510;2022-07-23T02:06:09;101968.09;;;17.63;72.58
11440;BME280;5776;51.814;4.510;2022-07-23T02:08:35;101967.75;;;17.65;71.54
11440;BME280;5776;51.814;4.510;2022-07-23T02:11:01;101960.66;;;17.64;72.25
11440;BME280;5776;51.814;4.510;2022-07-23T02:13:27;101957.09;;;17.63;72.83
11440;BME280;5776;51.814;4.510;2022-07-23T02:15:54;101964.31;;;17.59;72.40
11440;BME280;5776;51.814;4.510;2022-07-23T02:18:20;101964.31;;;17.59;72.35
11440;BME280;5776;51.814;4.510;2022-07-23T02:20:47;101951.50;;;17.55;72.46
11440;BME280;5776;51.814;4.510;2022-07-23T02:23:13;101945.19;;;17.54;72.59
11440;BME280;5776;51.814;4.510;2022-07-23T02:25:44;101952.63;;;17.54;72.65
11440;BME280;5776;51.814;4.510;2022-07-23T02:28:10;101945.03;;;17.51;71.69
11440;BME280;5776;51.814;4.510;2022-07-23T02:30:36;101948.88;;;17.49;72.12
11440;BME280;5776;51.814;4.510;2022-07-23T02:33:03;101949.50;;;17.46;72.92
11440;BME280;5776;51.814;4.510;2022-07-23T02:35:29;101949.50;;;17.46;72.40
11440;BME280;5776;51.814;4.510;2022-07-23T02:37:55;101955.28;;;17.45;71.46
11440;BME280;5776;51.814;4.510;2022-07-23T02:40:21;101960.59;;;17.41;72.89
11440;BME280;5776;51.814;4.510;2022-07-23T02:42:47;101949.72;;;17.36;72.90
11440;BME280;5776;51.814;4.510;2022-07-23T02:45:13;101945.66;;;17.34;73.26
11440;BME280;5776;51.814;4.510;2022-07-23T02:47:39;101947.59;;;17.33;72.59
11440;BME280;5776;51.814;4.510;2022-07-23T02:50:06;101955.22;;;17.36;72.78
11440;BME280;5776;51.814;4.510;2022-07-23T02:52:32;101955.00;;;17.33;72.94
11440;BME280;5776;51.814;4.510;2022-07-23T02:54:58;101953.09;;;17.33;72.11
11440;BME280;5776;51.814;4.510;2022-07-23T02:57:25;101958.34;;;17.30;72.65
11440;BME280;5776;51.814;4.510;2022-07-23T02:59:51;101948.63;;;17.23;72.61
11440;BME280;5776;51.814;4.510;2022-07-23T03:02:17;101951.13;;;17.20;73.01
11440;BME280;5776;51.814;4.510;2022-07-23T03:04:43;101957.13;;;17.22;72.11
11440;BME280;5776;51.814;4.510;2022-07-23T03:07:09;101962.34;;;17.23;72.49
11440;BME280;5776;51.814;4.510;2022-07-23T03:09:35;101964.16;;;17.28;72.07
11440;BME280;5776;51.814;4.510;2022-07-23T03:12:02;101962.84;;;17.25;72.40
11440;BME280;5776;51.814;4.510;2022-07-23T03:14:28;101973.00;;;17.25;71.96
11440;BME280;5776;51.814;4.510;2022-07-23T03:16:54;101972.69;;;17.26;71.91
11440;BME280;5776;51.814;4.510;2022-07-23T03:19:20;101982.88;;;17.26;71.52
11440;BME280;5776;51.814;4.510;2022-07-23T03:21:46;101978.81;;;17.23;71.53
11440;BME280;5776;51.814;4.510;2022-07-23T03:24:12;101970.88;;;17.22;72.51
11440;BME280;5776;51.814;4.510;2022-07-23T03:26:38;101972.09;;;17.16;73.18
11440;BME280;5776;51.814;4.510;2022-07-23T03:29:04;101969.47;;;17.11;72.64
11440;BME280;5776;51.814;4.510;2022-07-23T03:31:30;101972.31;;;17.05;73.10
11440;BME280;5776;51.814;4.510;2022-07-23T03:33:57;101969.47;;;17.11;72.64
11440;BME280;5776;51.814;4.510;2022-07-23T03:36:23;101970.25;;;17.11;72.56
11440;BME280;5776;51.814;4.510;2022-07-23T03:38:49;101960.09;;;17.12;72.45
11440;BME280;5776;51.814;4.510;2022-07-23T03:41:17;101963.88;;;17.16;73.23
11440;BME280;5776;51.814;4.510;2022-07-23T03:43:43;101954.78;;;17.15;72.73
11440;BME280;5776;51.814;4.510;2022-07-23T03:46:09;101961.94;;;17.16;72.70
11440;BME280;5776;51.814;4.510;2022-07-23T03:48:35;101963.88;;;17.16;72.87
11440;BME280;5776;51.814;4.510;2022-07-23T03:51:01;101971.59;;;17.14;73.16
11440;BME280;5776;51.814;4.510;2022-07-23T03:53:28;101981.13;;;17.16;73.37
11440;BME280;5776;51.814;4.510;2022-07-23T03:55:54;101982.47;;;17.19;73.82
11440;BME280;5776;51.814;4.510;2022-07-23T03:58:20;101990.47;;;17.15;72.91
11440;BME280;5776;51.814;4.510;2022-07-23T04:00:46;101988.56;;;17.16;74.28
11440;BME280;5776;51.814;4.510;2022-07-23T04:03:12;101984.19;;;17.15;73.09
11440;BME280;5776;51.814;4.510;2022-07-23T04:05:38;101975.94;;;17.15;74.13
11440;BME280;5776;51.814;4.510;2022-07-23T04:08:04;101993.22;;;17.15;74.06
11440;BME280;5776;51.814;4.510;2022-07-23T04:10:30;101989.38;;;17.16;73.17
11440;BME280;5776;51.814;4.510;2022-07-23T04:12:56;101996.47;;;17.17;74.75
11440;BME280;5776;51.814;4.510;2022-07-23T04:15:22;101992.94;;;17.17;74.17
11440;BME280;5776;51.814;4.510;2022-07-23T04:17:48;101994.06;;;17.16;74.27
11440;BME280;5776;51.814;4.510;2022-07-23T04:20:14;101990.19;;;17.17;74.16
11440;BME280;5776;51.814;4.510;2022-07-23T04:22:39;101991.50;;;17.19;73.67
11440;BME280;5776;51.814;4.510;2022-07-23T04:25:06;101986.00;;;17.19;74.80
11440;BME280;5776;51.814;4.510;2022-07-23T04:27:32;101982.47;;;17.19;74.45
11440;BME280;5776;51.814;4.510;2022-07-23T04:29:59;101989.56;;;17.20;74.24
11440;BME280;5776;51.814;4.510;2022-07-23T04:32:25;101987.94;;;17.19;74.38
11440;BME280;5776;51.814;4.510;2022-07-23T04:34:51;101987.94;;;17.19;75.70
11440;BME280;5776;51.814;4.510;2022-07-23T04:37:17;101986.31;;;17.18;75.27
11440;BME280;5776;51.814;4.510;2022-07-23T04:39:43;101992.63;;;17.18;75.54
11440;BME280;5776;51.814;4.510;2022-07-23T04:42:10;101993.97;;;17.21;75.13
11440;BME280;5776;51.814;4.510;2022-07-23T04:44:36;102003.81;;;17.22;74.94
11440;BME280;5776;51.814;4.510;2022-07-23T04:47:02;102005.44;;;17.23;75.31
11440;BME280;5776;51.814;4.510;2022-07-23T04:49:28;102013.19;;;17.21;75.22
11440;BME280;5776;51.814;4.510;2022-07-23T04:51:54;102007.69;;;17.21;74.71
11440;BME280;5776;51.814;4.510;2022-07-23T04:54:20;102007.69;;;17.21;74.17
11440;BME280;5776;51.814;4.510;2022-07-23T04:56:45;102014.78;;;17.22;73.99
11440;BME280;5776;51.814;4.510;2022-07-23T04:59:11;102005.44;;;17.23;73.68
11440;BME280;5776;51.814;4.510;2022-07-23T05:01:37;102005.25;;;17.33;74.12
11440;BME280;5776;51.814;4.510;2022-07-23T05:04:03;102007.88;;;17.38;73.61
11440;BME280;5776;51.814;4.510;2022-07-23T05:06:29;102012.75;;;17.41;73.09
11440;BME280;5776;51.814;4.510;2022-07-23T05:08:55;102013.28;;;17.43;72.94
11440;BME280;5776;51.814;4.510;2022-07-23T05:11:21;102012.94;;;17.45;72.47
11440;BME280;5776;51.814;4.510;2022-07-23T05:13:47;102010.19;;;17.45;71.99
11440;BME280;5776;51.814;4.510;2022-07-23T05:16:13;102011.00;;;17.45;72.97
11440;BME280;5776;51.814;4.510;2022-07-23T05:18:39;102009.09;;;17.46;72.10
11440;BME280;5776;51.814;4.510;2022-07-23T05:21:05;102011.53;;;17.47;72.34
11440;BME280;5776;51.814;4.510;2022-07-23T05:23:31;102011.53;;;17.47;72.53
11440;BME280;5776;51.814;4.510;2022-07-23T05:25:56;102007.69;;;17.48;71.92
11440;BME280;5776;51.814;4.510;2022-07-23T05:28:22;102012.84;;;17.50;72.16
11440;BME280;5776;51.814;4.510;2022-07-23T05:30:49;102010.94;;;17.51;71.51
11440;BME280;5776;51.814;4.510;2022-07-23T05:33:15;102012.56;;;17.52;71.38
11440;BME280;5776;51.814;4.510;2022-07-23T05:35:41;102014.16;;;17.53;72.08
11440;BME280;5776;51.814;4.510;2022-07-23T05:38:06;102019.66;;;17.53;71.34
11440;BME280;5776;51.814;4.510;2022-07-23T05:40:32;102014.69;;;17.55;71.73
11440;BME280;5776;51.814;4.510;2022-07-23T05:42:58;102009.19;;;17.55;71.58
11440;BME280;5776;51.814;4.510;2022-07-23T05:45:24;102010.81;;;17.56;71.80
11440;BME280;5776;51.814;4.510;2022-07-23T05:47:50;102016.31;;;17.56;71.26
11440;BME280;5776;51.814;4.510;2022-07-23T05:50:16;102011.63;;;17.56;71.32
11440;BME280;5776;51.814;4.510;2022-07-23T05:52:42;102014.06;;;17.58;71.30
11440;BME280;5776;51.814;4.510;2022-07-23T05:55:10;102005.81;;;17.58;70.84
11440;BME280;5776;51.814;4.510;2022-07-23T05:57:36;102007.47;;;17.59;71.08
11440;BME280;5776;51.814;4.510;2022-07-23T06:00:04;102010.22;;;17.59;71.34
11440;BME280;5776;51.814;4.510;2022-07-23T06:02:30;102014.56;;;17.60;70.91
11440;BME280;5776;51.814;4.510;2022-07-23T06:04:56;102012.34;;;17.62;70.42
11440;BME280;5776;51.814;4.510;2022-07-23T06:07:22;102010.09;;;17.64;71.14
11440;BME280;5776;51.814;4.510;2022-07-23T06:09:48;102020.16;;;17.55;71.92
11440;BME280;5776;51.814;4.510;2022-07-23T06:12:15;102014.88;;;17.44;72.49
11440;BME280;5776;51.814;4.510;2022-07-23T06:14:42;102025.59;;;17.46;72.49
11440;BME280;5776;51.814;4.510;2022-07-23T06:17:08;102008.38;;;17.40;73.45
11440;BME280;5776;51.814;4.510;2022-07-23T06:19:34;102028.72;;;17.39;74.43
11440;BME280;5776;51.814;4.510;2022-07-23T06:21:59;102025.88;;;17.44;73.17
11440;BME280;5776;51.814;4.510;2022-07-23T06:24:25;102028.63;;;17.44;73.41
11440;BME280;5776;51.814;4.510;2022-07-23T06:26:51;102030.84;;;17.42;73.06
11440;BME280;5776;51.814;4.510;2022-07-23T06:29:17;102039.81;;;17.34;73.63
11440;BME280;5776;51.814;4.510;2022-07-23T06:31:43;102023.53;;;17.38;74.39
11440;BME280;5776;51.814;4.510;2022-07-23T06:34:09;102026.78;;;17.40;73.78
11440;BME280;5776;51.814;4.510;2022-07-23T06:36:35;102022.72;;;17.37;73.97
11440;BME280;5776;51.814;4.510;2022-07-23T06:39:01;102026.88;;;17.35;74.42
11440;BME280;5776;51.814;4.510;2022-07-23T06:41:27;102022.94;;;17.41;73.50
11440;BME280;5776;51.814;4.510;2022-07-23T06:43:53;102022.50;;;17.47;72.92
11440;BME280;5776;51.814;4.510;2022-07-23T06:46:19;102014.16;;;17.53;72.97
11440;BME280;5776;51.814;4.510;2022-07-23T06:48:45;102018.84;;;17.52;73.05
11440;BME280;5776;51.814;4.510;2022-07-23T06:51:10;102026.78;;;17.54;72.48
11440;BME280;5776;51.814;4.510;2022-07-23T06:53:36;102028.63;;;17.58;72.59
11440;BME280;5776;51.814;4.510;2022-07-23T06:56:02;102042.47;;;17.53;72.24
11440;BME280;5776;51.814;4.510;2022-07-23T06:58:28;102037.47;;;17.55;72.34
11440;BME280;5776;51.814;4.510;2022-07-23T07:00:54;102034.94;;;17.59;71.72
11440;BME280;5776;51.814;4.510;2022-07-23T07:03:22;102030.53;;;17.58;72.31
11440;BME280;5776;51.814;4.510;2022-07-23T07:05:48;102033.50;;;17.61;72.01
11440;BME280;5776;51.814;4.510;2022-07-23T07:08:15;102033.69;;;17.65;72.09
11440;BME280;5776;51.814;4.510;2022-07-23T07:10:41;102031.84;;;17.74;71.33
11440;BME280;5776;51.814;4.510;2022-07-23T07:13:07;102032.56;;;17.80;71.72
11440;BME280;5776;51.814;4.510;2022-07-23T07:15:33;102041.34;;;17.82;71.01
11440;BME280;5776;51.814;4.510;2022-07-23T07:17:59;102039.59;;;17.86;71.23
11440;BME280;5776;51.814;4.510;2022-07-23T07:20:25;102033.59;;;17.84;72.05
11440;BME280;5776;51.814;4.510;2022-07-23T07:22:51;102035.09;;;17.76;72.02
11440;BME280;5776;51.814;4.510;2022-07-23T07:25:17;102038.97;;;17.75;71.35
11440;BME280;5776;51.814;4.510;2022-07-23T07:27:43;102046.91;;;17.77;71.78
11440;BME280;5776;51.814;4.510;2022-07-23T07:30:10;102043.34;;;17.76;71.69
11440;BME280;5776;51.814;4.510;2022-07-23T07:32:36;102036.44;;;17.79;71.74
11440;BME280;5776;51.814;4.510;2022-07-23T07:35:04;102041.34;;;17.82;71.87
11440;BME280;5776;51.814;4.510;2022-07-23T07:37:30;102049.75;;;17.85;71.63
11440;BME280;5776;51.814;4.510;2022-07-23T07:39:56;102046.91;;;17.90;71.15
11440;BME280;5776;51.814;4.510;2022-07-23T07:42:21;102050.88;;;17.98;71.31
11440;BME280;5776;51.814;4.510;2022-07-23T07:44:47;102054.94;;;18.01;71.76
11440;BME280;5776;51.814;4.510;2022-07-23T07:47:13;102056.56;;;18.02;71.63
11440;BME280;5776;51.814;4.510;2022-07-23T07:49:42;102059.13;;;17.98;71.77
11440;BME280;5776;51.814;4.510;2022-07-23T07:52:08;102062.34;;;18.00;71.19
11440;BME280;5776;51.814;4.510;2022-07-23T07:54:34;102066.41;;;18.03;71.01
11440;BME280;5776;51.814;4.510;2022-07-23T07:57:00;102066.13;;;18.04;71.32
11440;BME280;5776;51.814;4.510;2022-07-23T07:59:26;102076.38;;;18.12;70.85
11440;BME280;5776;51.814;4.510;2022-07-23T08:01:52;102070.66;;;18.23;70.77
11440;BME280;5776;51.814;4.510;2022-07-23T08:04:18;102076.34;;;18.26;70.39
11440;BME280;5776;51.814;4.510;2022-07-23T08:06:44;102077.06;;;18.18;71.26
11440;BME280;5776;51.814;4.510;2022-07-23T08:09:10;102073.22;;;18.19;70.93
11440;BME280;5776;51.814;4.510;2022-07-23T08:11:36;102073.91;;;18.25;70.51
11440;BME280;5776;51.814;4.510;2022-07-23T08:14:02;102076.88;;;18.28;70.39
11440;BME280;5776;51.814;4.510;2022-07-23T08:16:28;102083.34;;;18.32;70.80
11440;BME280;5776;51.814;4.510;2022-07-23T08:18:55;102083.47;;;18.27;70.33
11440;BME280;5776;51.814;4.510;2022-07-23T08:21:20;102087.13;;;18.37;70.94
11440;BME280;5776;51.814;4.510;2022-07-23T08:23:46;102083.34;;;18.32;71.22
11440;BME280;5776;51.814;4.510;2022-07-23T08:26:12;102073.50;;;18.31;70.86
11440;BME280;5776;51.814;4.510;2022-07-23T08:28:38;102076.94;;;18.37;70.35
11440;BME280;5776;51.814;4.510;2022-07-23T08:31:04;102074.06;;;18.42;70.29
11440;BME280;5776;51.814;4.510;2022-07-23T08:33:31;102065.19;;;18.45;70.76
11440;BME280;5776;51.814;4.510;2022-07-23T08:35:58;102071.88;;;18.53;69.51
11440;BME280;5776;51.814;4.510;2022-07-23T08:38:24;102066.56;;;18.56;70.27
11440;BME280;5776;51.814;4.510;2022-07-23T08:40:52;102057.97;;;18.58;70.30
11440;BME280;5776;51.814;4.510;2022-07-23T08:43:21;102065.31;;;18.63;69.85
11440;BME280;5776;51.814;4.510;2022-07-23T08:45:48;102064.38;;;18.67;70.26
11440;BME280;5776;51.814;4.510;2022-07-23T08:48:18;102068.63;;;18.73;69.88
11440;BME280;5776;51.814;4.510;2022-07-23T08:50:47;102079.84;;;18.77;70.03
11440;BME280;5776;51.814;4.510;2022-07-23T08:53:15;102078.41;;;18.80;69.79
11440;BME280;5776;51.814;4.510;2022-07-23T08:55:48;102077.78;;;18.83;69.89
11440;BME280;5776;51.814;4.510;2022-07-23T08:58:14;102088.16;;;18.86;70.22
11440;BME280;5776;51.814;4.510;2022-07-23T09:00:41;102083.47;;;18.86;70.50
11440;BME280;5776;51.814;4.510;2022-07-23T09:03:18;102096.91;;;18.88;70.18
11440;BME280;5776;51.814;4.510;2022-07-23T09:05:45;102091.28;;;18.93;70.08
11440;BME280;5776;51.814;4.510;2022-07-23T09:08:14;102089.22;;;18.98;70.04
11440;BME280;5776;51.814;4.510;2022-07-23T09:15:58;102086.00;;;19.05;69.08
11440;BME280;5776;51.814;4.510;2022-07-23T09:18:29;102088.13;;;19.08;69.10
11440;BME280;5776;51.814;4.510;2022-07-23T09:23:49;102090.25;;;19.11;69.51
11440;BME280;5776;51.814;4.510;2022-07-23T09:26:41;102091.72;;;19.09;69.46
11440;BME280;5776;51.814;4.510;2022-07-23T09:31:43;102089.63;;;19.14;69.33
11440;BME280;5776;51.814;4.510;2022-07-23T09:34:14;102083.47;;;19.17;69.50
11440;BME280;5776;51.814;4.510;2022-07-23T09:36:41;102089.78;;;19.18;69.17
11440;BME280;5776;51.814;4.510;2022-07-23T09:39:08;102085.09;;;19.18;69.27
11440;BME280;5776;51.814;4.510;2022-07-23T09:41:36;102087.25;;;19.21;68.86
11440;BME280;5776;51.814;4.510;2022-07-23T09:44:08;102082.69;;;19.26;69.12
11440;BME280;5776;51.814;4.510;2022-07-23T09:46:34;102084.84;;;19.29;69.01
11440;BME280;5776;51.814;4.510;2022-07-23T09:49:10;102085.81;;;19.33;69.16
11440;BME280;5776;51.814;4.510;2022-07-23T09:51:53;102085.69;;;19.38;69.02
11440;BME280;5776;51.814;4.510;2022-07-23T09:54:40;102090.69;;;19.36;68.47
11440;BME280;5776;51.814;4.510;2022-07-23T09:57:11;102094.00;;;19.47;68.66
11440;BME280;5776;51.814;4.510;2022-07-23T09:59:43;102093.88;;;19.60;70.66
11440;BME280;5776;51.814;4.510;2022-07-23T10:02:11;102098.13;;;19.67;69.08
11440;BME280;5776;51.814;4.510;2022-07-23T10:04:39;102092.09;;;19.64;68.65
11440;BME280;5776;51.814;4.510;2022-07-23T10:07:06;102093.44;;;19.67;68.06
11440;BME280;5776;51.814;4.510;2022-07-23T10:09:37;102099.44;;;19.69;68.22
11440;BME280;5776;51.814;4.510;2022-07-23T10:12:05;102100.25;;;19.70;68.96
11440;BME280;5776;51.814;4.510;2022-07-23T10:14:53;102099.63;;;19.73;68.08
11440;BME280;5776;51.814;4.510;2022-07-23T10:17:19;102095.25;;;19.80;67.95
11440;BME280;5776;51.814;4.510;2022-07-23T10:19:45;102095.75;;;19.82;67.71
11440;BME280;5776;51.814;4.510;2022-07-23T10:22:13;102096.25;;;19.84;67.92
11440;BME280;5776;51.814;4.510;2022-07-23T10:30:20;102094.66;;;19.92;68.64
11440;BME280;5776;51.814;4.510;2022-07-23T10:36:03;102084.13;;;19.94;68.41
11440;BME280;5776;51.814;4.510;2022-07-23T10:38:54;102080.22;;;19.95;68.66
11440;BME280;5776;51.814;4.510;2022-07-23T10:44:16;102087.84;;;20.07;67.27
11440;BME280;5776;51.814;4.510;2022-07-23T10:47:01;102078.13;;;20.10;67.44
11440;BME280;5776;51.814;4.510;2022-07-23T10:49:32;102079.75;;;20.11;67.27
11440;BME280;5776;51.814;4.510;2022-07-23T10:54:43;102064.03;;;20.20;66.45
11440;BME280;5776;51.814;4.510;2022-07-23T10:57:10;102073.75;;;20.26;66.81
11440;BME280;5776;51.814;4.510;2022-07-23T11:02:36;102077.81;;;20.28;66.71
11440;BME280;5776;51.814;4.510;2022-07-23T11:05:08;102077.97;;;20.32;66.95
11440;BME280;5776;51.814;4.510;2022-07-23T11:07:36;102071.31;;;20.33;66.28
11440;BME280;5776;51.814;4.510;2022-07-23T11:10:03;102065.97;;;20.37;66.24
11440;BME280;5776;51.814;4.510;2022-07-23T11:12:43;102076.34;;;20.40;66.41
11440;BME280;5776;51.814;4.510;2022-07-23T11:15:11;102076.66;;;20.38;66.72
11440;BME280;5776;51.814;4.510;2022-07-23T11:25:11;102070.50;;;20.59;65.18
11440;BME280;5776;51.814;4.510;2022-07-23T11:27:38;102068.75;;;20.63;64.91
11440;BME280;5776;51.814;4.510;2022-07-23T11:30:07;102065.31;;;20.66;64.98
11440;BME280;5776;51.814;4.510;2022-07-23T11:32:39;102062.72;;;20.69;65.42
11440;BME280;5776;51.814;4.510;2022-07-23T11:35:23;102062.22;;;20.76;66.46
11440;BME280;5776;51.814;4.510;2022-07-23T11:37:49;102064.81;;;20.73;66.06
11440;BME280;5776;51.814;4.510;2022-07-23T11:40:20;102056.88;;;20.71;66.19
11440;BME280;5776;51.814;4.510;2022-07-23T11:43:03;102058.16;;;20.74;65.25
11440;BME280;5776;51.814;4.510;2022-07-23T11:45:34;102057.84;;;20.75;66.06
11440;BME280;5776;51.814;4.510;2022-07-23T11:48:01;102055.56;;;20.77;65.52
11440;BME280;5776;51.814;4.510;2022-07-23T11:50:27;102049.22;;;20.85;64.31
11440;BME280;5776;51.814;4.510;2022-07-23T11:52:54;102052.94;;;20.89;64.91
11440;BME280;5776;51.814;4.510;2022-07-23T11:55:20;102055.34;;;20.91;64.71
11440;BME280;5776;51.814;4.510;2022-07-23T11:57:47;102050.81;;;20.95;64.14
11440;BME280;5776;51.814;4.510;2022-07-23T12:00:19;102052.41;;;20.96;64.54
11440;BME280;5776;51.814;4.510;2022-07-23T12:05:17;102049.34;;;20.98;63.54
11440;BME280;5776;51.814;4.510;2022-07-23T12:07:45;102045.72;;;21.06;63.85
11440;BME280;5776;51.814;4.510;2022-07-23T12:10:21;102044.44;;;21.12;63.72
11440;BME280;5776;51.814;4.510;2022-07-23T12:12:56;102044.44;;;21.12;63.86
11440;BME280;5776;51.814;4.510;2022-07-23T12:15:28;102041.81;;;21.15;63.36
11440;BME280;5776;51.814;4.510;2022-07-23T12:17:56;102046.69;;;21.10;63.71
11440;BME280;5776;51.814;4.510;2022-07-23T12:20:48;102048.19;;;20.99;64.71
11440;BME280;5776;51.814;4.510;2022-07-23T12:23:14;102048.72;;;20.83;65.74
11440;BME280;5776;51.814;4.510;2022-07-23T12:25:43;102047.28;;;20.77;65.55
11440;BME280;5776;51.814;4.510;2022-07-23T12:28:16;102048.75;;;20.75;66.16
11440;BME280;5776;51.814;4.510;2022-07-23T12:30:45;102051.03;;;20.73;65.82
11440;BME280;5776;51.814;4.510;2022-07-23T12:33:21;102049.88;;;20.74;66.32
11440;BME280;5776;51.814;4.510;2022-07-23T12:35:48;102050.72;;;20.74;66.61
11440;BME280;5776;51.814;4.510;2022-07-23T12:38:19;102047.13;;;20.74;66.72
11440;BME280;5776;51.814;4.510;2022-07-23T12:40:46;102050.72;;;20.74;67.27
11440;BME280;5776;51.814;4.510;2022-07-23T12:43:25;102046.31;;;20.73;66.99
11440;BME280;5776;51.814;4.510;2022-07-23T12:46:01;102044.34;;;20.74;66.71
11440;BME280;5776;51.814;4.510;2022-07-23T12:48:29;102046.31;;;20.73;66.89
11440;BME280;5776;51.814;4.510;2022-07-23T12:51:05;102043.56;;;20.73;65.92
11440;BME280;5776;51.814;4.510;2022-07-23T12:53:37;102041.28;;;20.75;67.14
11440;BME280;5776;51.814;4.510;2022-07-23T12:58:53;102042.09;;;20.76;67.50
11440;BME280;5776;51.814;4.510;2022-07-23T13:06:21;102031.22;;;20.79;66.31
11440;BME280;5776;51.814;4.510;2022-07-23T13:08:47;102030.88;;;20.81;66.56
11440;BME280;5776;51.814;4.510;2022-07-23T13:11:13;102027.78;;;20.82;67.32
11440;BME280;5776;51.814;4.510;2022-07-23T13:13:39;102021.91;;;20.84;68.14
11440;BME280;5776;51.814;4.510;2022-07-23T13:16:05;102031.34;;;20.83;67.39
11440;BME280;5776;51.814;4.510;2022-07-23T13:18:44;102023.88;;;20.83;67.97
11440;BME280;5776;51.814;4.510;2022-07-23T13:21:10;102025.50;;;20.84;68.12
11440;BME280;5776;51.814;4.510;2022-07-23T13:23:36;102018.03;;;20.85;68.11
11440;BME280;5776;51.814;4.510;2022-07-23T13:26:02;102014.13;;;20.86;67.83
11440;BME280;5776;51.814;4.510;2022-07-23T13:28:43;102024.84;;;20.87;68.00
11440;BME280;5776;51.814;4.510;2022-07-23T13:31:09;102027.59;;;20.87;67.04
11440;BME280;5776;51.814;4.510;2022-07-23T13:33:35;102031.97;;;20.88;65.26
11440;BME280;5776;51.814;4.510;2022-07-23T13:36:01;102023.03;;;20.91;66.57
11440;BME280;5776;51.814;4.510;2022-07-23T13:38:27;102029.03;;;20.93;66.80
11440;BME280;5776;51.814;4.510;2022-07-23T13:40:54;102023.50;;;20.93;67.02
11440;BME280;5776;51.814;4.510;2022-07-23T13:43:21;102021.25;;;20.96;67.55
11440;BME280;5776;51.814;4.510;2022-07-23T13:48:14;102020.13;;;20.97;66.58
11440;BME280;5776;51.814;4.510;2022-07-23T13:50:41;102020.13;;;20.97;66.04